Time;durP1;ratioP1;P1;durP2;ratioP2;P2;SDS_P1;SDS_P2;PMS_P1;PMS_P2;Temp;Humidity;BMP_temperature;BMP_pressure;BME280_temperature;BME280_humidity;BME280_pressure;Samples;Min_cycle;Max_cycle;Signal;HPM_P1;HPM_P2
2021/06/23 00:00:38;;;;;;;;;43.50;37.25;;;;;17.55;62.09;101348.78;4941939;28;45314;-59
2021/06/23 00:03:03;;;;;;;;;48.00;39.00;;;;;17.55;62.23;101347.91;4956976;28;48099;-59
2021/06/23 00:05:29;;;;;;;;;39.25;31.75;;;;;17.54;61.98;101354.16;4942201;28;45428;-59
2021/06/23 00:07:54;;;;;;;;;39.00;35.00;;;;;17.53;62.25;101355.94;4942002;28;45469;-58
2021/06/23 00:10:21;;;;;;;;;41.00;35.50;;;;;17.53;62.07;101352.41;4942253;28;45474;-59
2021/06/23 00:12:47;;;;;;;;;41.75;35.75;;;;;17.50;62.20;101342.75;4941534;28;46200;-58
2021/06/23 00:15:16;;;;;;;;;43.25;36.50;;;;;17.49;62.39;101346.31;4942069;28;45479;-59
2021/06/23 00:17:43;;;;;;;;;41.25;34.50;;;;;17.50;61.96;101352.53;4941678;28;45397;-59
2021/06/23 00:20:08;;;;;;;;;34.75;31.50;;;;;17.48;62.11;101349.03;4956898;28;45459;-58
2021/06/23 00:22:34;;;;;;;;;38.00;34.50;;;;;17.45;62.28;101346.50;4941404;28;45454;-59
2021/06/23 00:24:59;;;;;;;;;39.25;34.25;;;;;17.48;62.26;101351.69;4942017;28;45318;-58
2021/06/23 00:27:25;;;;;;;;;41.50;35.00;;;;;17.45;62.25;101346.50;4941607;28;45449;-57
2021/06/23 00:29:50;;;;;;;;;44.50;37.50;;;;;17.45;62.31;101344.69;4934331;28;45549;-58
2021/06/23 00:32:19;;;;;;;;;42.00;35.00;;;;;17.47;62.33;101347.28;4941618;28;46328;-58
2021/06/23 00:34:44;;;;;;;;;44.00;35.50;;;;;17.47;62.49;101348.19;4941545;28;45887;-58
2021/06/23 00:37:09;;;;;;;;;37.75;34.75;;;;;17.47;62.29;101352.59;4941672;28;45457;-58
2021/06/23 00:39:35;;;;;;;;;36.25;33.25;;;;;17.48;62.44;101351.69;4941592;28;45345;-58
2021/06/23 00:42:00;;;;;;;;;43.75;35.75;;;;;17.45;62.24;101351.81;4940278;28;45967;-58
2021/06/23 00:44:27;;;;;;;;;38.50;31.50;;;;;17.47;62.40;101357.91;4955191;28;45891;-58
2021/06/23 00:46:53;;;;;;;;;35.50;34.00;;;;;17.47;62.53;101361.47;4941138;28;45501;-58
2021/06/23 00:49:19;;;;;;;;;43.25;36.25;;;;;17.48;62.09;101355.22;4940198;28;45415;-58
2021/06/23 00:51:45;;;;;;;;;41.75;35.00;;;;;17.47;62.36;101361.47;4939837;28;46398;-61
2021/06/23 00:54:13;;;;;;;;;38.00;33.50;;;;;17.45;62.34;101359.78;4941590;28;45384;-59
2021/06/23 00:56:41;;;;;;;;;40.75;35.00;;;;;17.48;62.24;101359.66;4941032;28;45333;-59
2021/06/23 00:59:09;;;;;;;;;43.00;34.50;;;;;17.48;62.19;101360.56;4941308;28;45358;-59
2021/06/23 01:01:40;;;;;;;;;38.00;34.50;;;;;17.46;62.40;101365.03;4940673;28;46156;-59
2021/06/23 01:04:06;;;;;;;;;36.75;30.00;;;;;17.46;62.10;101357.06;4941237;28;45243;-59
2021/06/23 01:06:33;;;;;;;;;38.75;34.00;;;;;17.48;62.43;101363.22;4940030;28;45410;-59
2021/06/23 01:08:59;;;;;;;;;41.00;33.25;;;;;17.46;62.72;101357.06;4941349;28;45392;-59
2021/06/23 01:11:27;;;;;;;;;40.75;35.00;;;;;17.47;62.43;101364.13;4951755;28;45571;-59
2021/06/23 01:14:02;;;;;;;;;33.75;27.50;;;;;17.48;62.22;101365.88;4939822;28;45464;-59
2021/06/23 01:16:29;;;;;;;;;37.75;34.00;;;;;17.47;62.47;101363.22;4939766;28;45428;-59
2021/06/23 01:18:59;;;;;;;;;37.50;33.00;;;;;17.47;62.28;101364.13;4940603;28;45410;-58
2021/06/23 01:21:28;;;;;;;;;35.00;32.75;;;;;17.46;62.90;101357.06;4941111;28;46060;-59
2021/06/23 01:23:55;;;;;;;;;37.75;33.00;;;;;17.46;62.57;101354.41;4940482;28;45251;-59
2021/06/23 01:26:20;;;;;;;;;36.50;28.50;;;;;17.45;62.42;101355.31;4941298;28;45292;-60
2021/06/23 01:28:46;;;;;;;;;38.75;32.75;;;;;17.44;62.48;101353.56;4938829;28;45551;-59
2021/06/23 01:31:13;;;;;;;;;35.00;32.00;;;;;17.44;62.51;101352.72;4934751;28;45474;-59
2021/06/23 01:33:39;;;;;;;;;36.25;33.00;;;;;17.45;62.48;101357.13;4939372;28;45563;-59
2021/06/23 01:36:05;;;;;;;;;38.75;32.00;;;;;17.37;62.55;101352.03;4941024;28;45386;-59
2021/06/23 01:38:30;;;;;;;;;34.50;30.75;;;;;17.44;62.46;101369.53;4940815;28;45577;-60
2021/06/23 01:40:56;;;;;;;;;37.50;33.50;;;;;17.44;62.46;101366.88;4940610;28;45521;-59
2021/06/23 01:43:21;;;;;;;;;42.50;35.00;;;;;17.41;62.59;101372.28;4938276;28;45292;-60
2021/06/23 01:45:48;;;;;;;;;42.75;33.50;;;;;17.41;62.24;101361.66;4940416;28;45465;-59
2021/06/23 01:48:15;;;;;;;;;36.00;32.25;;;;;17.42;62.34;101365.19;4939398;28;45502;-60
2021/06/23 01:50:41;;;;;;;;;37.75;34.50;;;;;17.40;62.36;101362.56;4940205;28;45590;-59
2021/06/23 01:53:06;;;;;;;;;34.00;32.00;;;;;17.41;62.45;101352.81;4940688;28;45350;-60
2021/06/23 01:55:32;;;;;;;;;36.75;33.50;;;;;17.40;62.65;101359.91;4940656;28;45508;-60
2021/06/23 01:58:07;;;;;;;;;36.00;33.50;;;;;17.41;62.38;101361.66;4940255;28;45522;-59
2021/06/23 02:00:45;;;;;;;;;38.50;32.75;;;;;17.41;62.33;101352.81;4940218;28;45370;-60
2021/06/23 02:03:36;;;;;;;;;38.00;34.25;;;;;17.40;62.36;101346.63;4935876;28;45331;-59
2021/06/23 02:06:04;;;;;;;;;40.00;34.75;;;;;17.39;62.24;101347.56;4916566;28;45505;-60
2021/06/23 02:08:50;;;;;;;;;45.25;36.25;;;;;17.40;62.56;101353.75;4940483;28;45439;-60
2021/06/23 02:11:36;;;;;;;;;47.75;37.25;;;;;17.38;62.24;101359.09;4940205;28;46115;-59
2021/06/23 02:14:39;;;;;;;;;42.75;36.00;;;;;17.35;62.31;101354.75;4940851;28;45310;-60
2021/06/23 02:17:10;;;;;;;;;35.25;33.25;;;;;17.33;62.75;101355.72;4942499;28;45350;-60
2021/06/23 02:19:44;;;;;;;;;37.75;34.25;;;;;17.32;62.62;101348.66;4943537;28;45308;-60
2021/06/23 02:22:14;;;;;;;;;39.00;34.50;;;;;17.30;62.46;101356.69;4943605;28;46099;-60
2021/06/23 02:24:41;;;;;;;;;39.50;35.50;;;;;17.29;62.37;101336.34;4943212;28;45390;-60
2021/06/23 02:27:06;;;;;;;;;40.75;33.00;;;;;17.28;62.64;101347.03;4943489;28;45306;-60
2021/06/23 02:29:32;;;;;;;;;40.75;34.75;;;;;17.28;62.51;101349.69;4935741;28;45215;-60
2021/06/23 02:31:59;;;;;;;;;43.50;35.75;;;;;17.26;62.60;101346.22;4958250;28;47023;-62
2021/06/23 02:34:25;;;;;;;;;38.50;33.00;;;;;17.26;62.28;101359.47;4958596;28;46246;-61
2021/06/23 02:36:51;;;;;;;;;43.25;35.00;;;;;17.24;62.68;101358.69;4942022;28;45791;-60
2021/06/23 02:39:16;;;;;;;;;39.00;34.50;;;;;17.26;62.71;101363.03;4943623;28;45310;-60
2021/06/23 02:41:42;;;;;;;;;37.00;33.75;;;;;17.26;62.59;101359.47;4943078;28;46163;-60
2021/06/23 02:44:07;;;;;;;;;43.50;36.00;;;;;17.24;62.89;101358.69;4942214;28;45470;-60
2021/06/23 02:46:33;;;;;;;;;41.00;34.50;;;;;17.25;62.61;101357.78;4941917;28;45377;-60
2021/06/23 02:49:00;;;;;;;;;41.00;34.00;;;;;17.26;62.40;101355.06;4943368;28;45378;-60
2021/06/23 02:51:27;;;;;;;;;45.00;35.50;;;;;17.27;62.67;101361.22;4943410;28;45472;-60
2021/06/23 02:53:55;;;;;;;;;35.50;33.00;;;;;17.26;62.76;101367.44;4957833;28;45664;-60
2021/06/23 02:56:22;;;;;;;;;38.50;33.50;;;;;17.26;62.46;101363.03;4942196;28;45349;-60
2021/06/23 02:58:49;;;;;;;;;37.00;32.75;;;;;17.24;62.53;101362.19;4942814;28;45617;-60
2021/06/23 03:01:15;;;;;;;;;49.75;35.25;;;;;17.25;62.70;101360.44;4942880;28;45409;-60
2021/06/23 03:03:43;;;;;;;;;39.00;35.00;;;;;17.25;62.43;101363.09;4942701;28;45409;-61
2021/06/23 03:06:09;;;;;;;;;36.00;33.75;;;;;17.26;62.44;101368.34;4943245;28;45340;-60
2021/06/23 03:08:35;;;;;;;;;37.00;34.00;;;;;17.11;62.65;101351.09;4941463;28;45634;-60
2021/06/23 03:11:02;;;;;;;;;35.75;33.00;;;;;17.22;62.85;101361.41;4943117;28;46436;-60
2021/06/23 03:13:27;;;;;;;;;38.25;32.50;;;;;17.21;62.75;101355.19;4942854;28;45415;-59
2021/06/23 03:15:53;;;;;;;;;34.00;31.50;;;;;17.22;62.84;101348.97;4942681;28;45392;-59
2021/06/23 03:18:19;;;;;;;;;37.75;33.75;;;;;17.22;62.55;101354.28;4942960;28;45388;-59
2021/06/23 03:20:44;;;;;;;;;27.25;25.50;;;;;17.22;62.59;101354.28;4942491;28;47052;-59
2021/06/23 03:23:09;;;;;;;;;35.50;33.25;;;;;17.22;62.70;101348.97;4942730;28;45444;-59
2021/06/23 03:25:35;;;;;;;;;40.00;33.25;;;;;17.20;62.60;101345.50;4942639;28;45342;-59
2021/06/23 03:28:02;;;;;;;;;36.75;31.25;;;;;17.24;62.67;101351.56;4957433;28;45441;-59
2021/06/23 03:30:28;;;;;;;;;37.75;33.50;;;;;17.24;62.58;101356.03;4932320;28;46156;-60
2021/06/23 03:32:55;;;;;;;;;35.00;32.50;;;;;17.22;62.81;101356.09;4942338;28;45307;-59
2021/06/23 03:35:21;;;;;;;;;35.75;27.75;;;;;17.23;62.57;101352.50;4942839;28;45234;-59
2021/06/23 03:37:48;;;;;;;;;37.00;31.00;;;;;17.21;62.78;101355.19;4942251;28;45514;-59
2021/06/23 03:40:14;;;;;;;;;34.50;28.50;;;;;17.24;62.79;101362.19;4942510;28;45431;-59
2021/06/23 03:42:39;;;;;;;;;34.75;32.00;;;;;17.24;62.68;101364.00;4941916;28;45649;-60
2021/06/23 03:45:05;;;;;;;;;30.00;28.00;;;;;17.24;62.59;101367.50;4941268;28;45266;-60
2021/06/23 03:47:31;;;;;;;;;33.75;27.75;;;;;17.25;62.55;101357.78;4942534;28;45507;-59
2021/06/23 03:49:56;;;;;;;;;32.75;30.50;;;;;17.19;62.54;101354.41;4942011;28;46031;-60
2021/06/23 03:52:22;;;;;;;;;33.25;28.25;;;;;17.22;62.72;101361.41;4957486;28;45393;-59
2021/06/23 03:54:47;;;;;;;;;33.75;29.50;;;;;17.23;62.83;101365.75;4942263;28;45475;-60
2021/06/23 03:57:12;;;;;;;;;27.00;22.75;;;;;17.22;62.49;101367.56;4942391;28;46529;-59
2021/06/23 03:59:38;;;;;;;;;35.00;30.50;;;;;17.22;62.90;101364.91;4942087;28;45429;-60
2021/06/23 04:02:04;;;;;;;;;30.25;26.00;;;;;17.20;63.03;101361.41;4957014;28;45484;-60
2021/06/23 04:04:29;;;;;;;;;29.25;26.75;;;;;17.20;62.63;101365.88;4942452;28;45440;-60
2021/06/23 04:06:55;;;;;;;;;28.25;27.50;;;;;17.21;62.74;101368.47;4941829;28;45446;-60
2021/06/23 04:09:20;;;;;;;;;29.00;26.00;;;;;17.22;62.75;101374.69;4942133;28;46220;-60
2021/06/23 04:11:46;;;;;;;;;30.00;26.25;;;;;17.17;62.71;101366.84;4941825;28;45488;-60
2021/06/23 04:14:11;;;;;;;;;25.50;24.50;;;;;17.20;63.01;101377.34;4942408;28;45367;-59
2021/06/23 04:16:36;;;;;;;;;25.00;25.00;;;;;17.21;63.02;101375.59;4941702;28;45369;-60
2021/06/23 04:19:02;;;;;;;;;25.00;23.00;;;;;17.20;62.74;101376.50;4940682;28;45531;-59
2021/06/23 04:21:27;;;;;;;;;28.25;26.75;;;;;17.19;62.93;101380.06;4940692;28;45397;-60
2021/06/23 04:23:52;;;;;;;;;25.50;24.00;;;;;17.21;62.82;101388.88;4956506;28;45453;-60
2021/06/23 04:26:18;;;;;;;;;24.50;23.25;;;;;17.24;62.72;101390.56;4941992;28;45517;-59
2021/06/23 04:28:43;;;;;;;;;26.25;24.75;;;;;17.23;62.92;101392.31;4940178;28;46183;-59
2021/06/23 04:31:08;;;;;;;;;22.00;20.50;;;;;17.22;62.63;101394.13;4935387;28;45396;-59
2021/06/23 04:33:34;;;;;;;;;26.50;24.75;;;;;17.23;62.86;101394.97;4941601;28;45314;-60
2021/06/23 04:35:59;;;;;;;;;24.00;21.50;;;;;17.18;62.97;101389.84;4941833;28;45262;-60
2021/06/23 04:38:25;;;;;;;;;23.50;22.00;;;;;17.24;62.78;101395.88;4941072;28;46143;-59
2021/06/23 04:40:50;;;;;;;;;25.50;23.25;;;;;17.23;62.98;101392.31;4956323;28;45772;-60
2021/06/23 04:43:15;;;;;;;;;25.00;21.00;;;;;17.24;62.74;101393.22;4956032;28;45334;-59
2021/06/23 04:45:41;;;;;;;;;26.50;23.50;;;;;17.21;62.97;101391.53;4940301;28;45764;-59
2021/06/23 04:48:07;;;;;;;;;28.50;23.50;;;;;17.24;62.93;101391.41;4940328;28;46097;-59
2021/06/23 04:50:32;;;;;;;;;25.25;22.75;;;;;17.24;62.61;101396.72;4940169;28;45397;-60
2021/06/23 04:52:58;;;;;;;;;28.50;25.00;;;;;17.24;62.75;101393.22;4940393;28;45302;-59
2021/06/23 04:55:24;;;;;;;;;23.00;23.00;;;;;17.25;63.18;101394.97;4941586;28;45301;-59
2021/06/23 04:57:49;;;;;;;;;27.00;23.75;;;;;17.24;63.33;101395.88;4939630;28;47112;-59
2021/06/23 05:00:16;;;;;;;;;24.50;24.25;;;;;17.22;63.22;101396.78;4940039;28;45381;-60
2021/06/23 05:02:41;;;;;;;;;24.50;22.50;;;;;17.24;62.90;101399.38;4941293;28;45511;-59
2021/06/23 05:05:08;;;;;;;;;39.00;33.75;;;;;17.23;63.37;101400.28;4941371;28;45560;-59
2021/06/23 05:07:33;;;;;;;;;30.75;24.75;;;;;17.22;63.16;101396.78;4940902;28;45389;-59
2021/06/23 05:09:58;;;;;;;;;25.50;25.50;;;;;17.22;63.37;101402.09;4941200;28;45450;-59
2021/06/23 05:12:27;;;;;;;;;23.50;20.50;;;;;17.23;63.18;101402.94;4941255;28;45441;-58
2021/06/23 05:14:53;;;;;;;;;33.00;24.25;;;;;17.22;63.41;101402.09;4940997;28;45840;-59
2021/06/23 05:17:18;;;;;;;;;22.75;20.25;;;;;17.21;63.26;101400.34;4940732;28;45362;-59
2021/06/23 05:19:44;;;;;;;;;26.50;23.25;;;;;17.20;63.44;101409.22;4940756;28;45387;-59
2021/06/23 05:22:11;;;;;;;;;25.00;21.25;;;;;17.20;63.42;101413.69;4940988;28;45420;-58
2021/06/23 05:24:41;;;;;;;;;27.00;21.25;;;;;17.21;63.60;101416.28;4940822;28;45472;-59
2021/06/23 05:27:07;;;;;;;;;25.00;21.75;;;;;17.20;63.45;101419.84;4940719;28;46290;-58
2021/06/23 05:29:33;;;;;;;;;24.75;22.75;;;;;17.12;63.12;101399.75;4933148;28;45381;-59
2021/06/23 05:31:59;;;;;;;;;25.75;20.00;;;;;17.22;63.16;101415.38;4941013;28;45375;-59
2021/06/23 05:34:24;;;;;;;;;23.75;21.50;;;;;17.21;63.08;101418.09;4941050;28;45482;-59
2021/06/23 05:36:49;;;;;;;;;22.75;21.00;;;;;17.21;63.39;101426.91;4940366;28;46079;-59
2021/06/23 05:39:15;;;;;;;;;23.00;21.00;;;;;17.20;63.03;101430.47;4940929;28;45223;-59
2021/06/23 05:41:40;;;;;;;;;25.25;21.75;;;;;17.22;63.27;101423.34;4940548;28;45166;-59
2021/06/23 05:44:06;;;;;;;;;22.00;20.25;;;;;17.23;63.51;101418.88;4939615;28;45511;-55
2021/06/23 05:46:31;;;;;;;;;26.50;23.00;;;;;17.22;63.53;101411.88;4940147;28;47002;-53
2021/06/23 05:48:57;;;;;;;;;18.75;15.75;;;;;17.19;63.19;101418.13;4938118;28;45305;-55
2021/06/23 05:51:22;;;;;;;;;23.25;21.25;;;;;17.24;63.45;101419.78;4955575;28;45428;-54
2021/06/23 05:53:47;;;;;;;;;22.00;19.75;;;;;17.20;63.11;101419.84;4940487;28;45363;-54
2021/06/23 05:56:14;;;;;;;;;20.25;16.75;;;;;17.25;63.37;101426.84;4939038;28;46931;-55
2021/06/23 05:58:40;;;;;;;;;19.00;17.25;;;;;17.25;63.46;101427.69;4940338;28;45432;-54
2021/06/23 06:01:06;;;;;;;;;23.50;20.00;;;;;17.25;63.37;101437.44;4940278;28;45395;-55
2021/06/23 06:03:32;;;;;;;;;25.25;22.25;;;;;17.24;63.16;101435.72;4955285;28;45341;-56
2021/06/23 06:05:58;;;;;;;;;24.50;20.25;;;;;17.26;63.35;101439.16;4940248;28;46135;-55
2021/06/23 06:08:23;;;;;;;;;22.75;22.25;;;;;17.28;63.11;101447.97;4940426;28;45793;-55
2021/06/23 06:10:48;;;;;;;;;21.50;19.75;;;;;17.26;63.34;101445.38;4938848;28;45227;-55
2021/06/23 06:13:14;;;;;;;;;24.75;22.00;;;;;17.27;63.45;101444.47;4940308;28;45506;-54
2021/06/23 06:15:39;;;;;;;;;21.50;20.25;;;;;17.29;63.43;101449.72;4954435;28;45877;-56
2021/06/23 06:18:06;;;;;;;;;24.75;24.75;;;;;17.29;63.53;101455.88;4940399;28;45459;-55
2021/06/23 06:20:33;;;;;;;;;23.75;21.75;;;;;17.27;63.26;101448.88;4938905;28;45454;-57
2021/06/23 06:22:59;;;;;;;;;21.75;20.75;;;;;17.30;63.56;101457.63;4940469;28;45523;-54
2021/06/23 06:25:27;;;;;;;;;22.00;17.50;;;;;17.32;63.29;101457.56;4954883;28;47657;-55
2021/06/23 06:27:53;;;;;;;;;25.00;24.50;;;;;17.32;63.55;101462.88;4938713;28;45239;-53
2021/06/23 06:30:21;;;;;;;;;24.25;20.00;;;;;17.30;63.44;101468.25;4947298;28;45358;-55
2021/06/23 06:32:46;;;;;;;;;29.25;25.25;;;;;17.30;63.14;101464.75;4954179;28;45812;-55
2021/06/23 06:35:12;;;;;;;;;25.50;24.50;;;;;17.31;63.18;101470.00;4939984;28;45655;-54
2021/06/23 06:37:38;;;;;;;;;24.25;24.00;;;;;17.31;63.44;101477.09;4939818;28;45558;-55
2021/06/23 06:40:04;;;;;;;;;23.75;19.25;;;;;17.31;63.32;101470.00;4940151;28;45732;-57
2021/06/23 06:42:29;;;;;;;;;28.75;25.75;;;;;17.29;63.05;101471.81;4953484;28;45432;-55
2021/06/23 06:44:55;;;;;;;;;28.50;26.25;;;;;17.33;63.12;101483.22;4926095;28;46995;-55
2021/06/23 06:47:20;;;;;;;;;23.00;22.25;;;;;17.30;63.29;101481.53;4940829;28;45342;-56
2021/06/23 06:49:45;;;;;;;;;28.25;22.75;;;;;17.31;63.14;101482.41;4939635;28;45366;-56
2021/06/23 06:52:11;;;;;;;;;28.00;23.50;;;;;17.30;63.14;101480.69;4940923;28;45472;-56
2021/06/23 06:54:36;;;;;;;;;31.25;25.25;;;;;17.35;63.20;101482.25;4940749;28;46106;-56
2021/06/23 06:57:02;;;;;;;;;27.25;26.00;;;;;17.34;63.22;101484.97;4955482;28;45218;-54
2021/06/23 06:59:29;;;;;;;;;25.75;25.75;;;;;17.33;63.23;101477.91;4940817;28;45243;-54
2021/06/23 07:01:55;;;;;;;;;32.75;25.75;;;;;17.34;63.13;101482.31;4943672;28;45484;-56
2021/06/23 07:04:20;;;;;;;;;29.25;25.00;;;;;17.37;63.01;101484.84;4958522;28;47100;-54
2021/06/23 07:06:46;;;;;;;;;24.75;24.25;;;;;17.36;63.02;101481.34;4943982;28;45313;-55
2021/06/23 07:09:13;;;;;;;;;22.25;22.00;;;;;17.39;63.25;101493.66;4943914;28;45258;-54
2021/06/23 07:11:39;;;;;;;;;23.25;23.25;;;;;17.38;63.18;101498.13;4943656;28;45467;-55
2021/06/23 07:14:05;;;;;;;;;27.25;26.25;;;;;17.38;63.14;101484.84;4943619;28;46189;-55
2021/06/23 07:16:31;;;;;;;;;26.25;24.00;;;;;17.41;63.10;101491.84;4943480;28;45294;-54
2021/06/23 07:18:56;;;;;;;;;32.00;25.50;;;;;17.41;63.14;101485.63;4943743;28;45373;-53
2021/06/23 07:21:22;;;;;;;;;28.00;22.25;;;;;17.42;63.19;101490.94;4943701;28;45166;-55
2021/06/23 07:23:49;;;;;;;;;31.50;28.00;;;;;17.41;63.03;101494.50;4943437;28;46117;-55
2021/06/23 07:26:16;;;;;;;;;28.50;25.75;;;;;17.44;62.98;101498.84;4943715;28;45232;-54
2021/06/23 07:31:24;;;;;;;;;29.00;25.75;;;;;17.44;62.93;101494.38;4932140;28;45437;-54
2021/06/23 07:33:57;;;;;;;;;28.25;25.25;;;;;17.45;62.80;101498.78;4943285;28;46975;-55
2021/06/23 07:36:35;;;;;;;;;25.75;24.25;;;;;17.45;63.08;101498.78;4943585;28;45259;-53
2021/06/23 07:39:06;;;;;;;;;23.50;21.75;;;;;17.46;62.99;101499.66;4943457;28;45151;-54
2021/06/23 07:41:31;;;;;;;;;23.75;21.75;;;;;17.47;62.90;101502.28;4943233;28;45267;-54
2021/06/23 07:43:57;;;;;;;;;27.25;25.25;;;;;17.48;62.76;101514.66;4941870;28;45244;-55
2021/06/23 07:46:23;;;;;;;;;27.00;24.25;;;;;17.50;63.00;101510.13;4943124;28;45326;-52
2021/06/23 07:48:51;;;;;;;;;24.25;22.75;;;;;17.52;62.93;101512.75;4943579;28;45172;-55
2021/06/23 07:51:19;;;;;;;;;26.00;25.25;;;;;17.51;62.99;101506.56;4943082;28;45570;-54
2021/06/23 07:56:22;;;;;;;;;27.75;24.00;;;;;17.53;62.80;101502.09;4943283;28;45304;-54
2021/06/23 08:09:40;;;;;;;;;31.75;27.50;;;;;17.60;62.79;101517.84;4942925;28;45183;-55
2021/06/23 08:14:38;;;;;;;;;39.75;31.50;;;;;17.63;63.12;101520.38;4942710;28;45282;-55
2021/06/23 08:17:04;;;;;;;;;31.75;27.25;;;;;17.64;63.06;101520.34;4942546;28;45429;-55
2021/06/23 08:19:29;;;;;;;;;33.75;32.25;;;;;17.66;62.97;101514.97;4942802;28;45303;-55
2021/06/23 08:21:55;;;;;;;;;33.25;29.50;;;;;17.67;62.98;101508.72;4942652;28;45497;-54
2021/06/23 08:24:20;;;;;;;;;34.75;31.75;;;;;17.69;62.91;101505.09;4957346;28;47110;-55
2021/06/23 08:26:45;;;;;;;;;32.00;28.00;;;;;17.70;62.93;101512.16;4942582;28;45211;-54
2021/06/23 08:29:11;;;;;;;;;30.50;28.25;;;;;17.71;62.64;101500.63;4937888;28;45731;-55
2021/06/23 08:31:36;;;;;;;;;30.75;28.25;;;;;17.75;63.05;101512.03;4949151;28;45666;-55
2021/06/23 08:34:01;;;;;;;;;32.50;28.50;;;;;17.77;63.07;101504.84;4942575;28;46267;-55
2021/06/23 08:36:27;;;;;;;;;36.50;32.75;;;;;17.80;62.85;101501.25;4942763;28;45371;-54
2021/06/23 08:38:52;;;;;;;;;26.75;24.50;;;;;17.83;63.03;101511.78;4942666;28;45243;-54
2021/06/23 08:41:18;;;;;;;;;26.75;26.50;;;;;17.85;63.00;101508.16;4942540;28;45454;-54
2021/06/23 08:43:43;;;;;;;;;26.00;26.00;;;;;17.91;62.90;101507.09;4936651;28;47914;-55
2021/06/23 08:46:09;;;;;;;;;31.50;28.50;;;;;17.92;62.93;101497.31;4934372;28;45344;-55
2021/06/23 08:48:35;;;;;;;;;32.50;28.00;;;;;17.97;62.88;101504.25;4942463;28;45430;-54
2021/06/23 08:51:04;;;;;;;;;29.00;28.00;;;;;18.02;62.91;101509.41;4942558;28;45463;-55
2021/06/23 08:53:29;;;;;;;;;30.00;25.75;;;;;18.06;62.92;101513.69;4942005;28;45350;-55
2021/06/23 08:55:55;;;;;;;;;32.25;22.75;;;;;18.09;62.97;101518.94;4957319;28;45283;-55
2021/06/23 08:58:20;;;;;;;;;29.00;25.00;;;;;18.10;62.67;101510.03;4942286;28;45211;-54
2021/06/23 09:00:45;;;;;;;;;26.00;24.00;;;;;18.16;62.75;101512.50;4942242;28;45318;-55
2021/06/23 09:03:11;;;;;;;;;32.25;26.75;;;;;18.20;62.84;101515.94;4940900;28;45330;-54
2021/06/23 09:05:47;;;;;;;;;24.25;23.25;;;;;18.25;62.62;101516.63;4942479;28;45496;-53
2021/06/23 09:08:13;;;;;;;;;26.00;23.50;;;;;18.27;62.65;101513.91;4930171;28;45384;-55
2021/06/23 09:10:39;;;;;;;;;28.75;27.00;;;;;18.30;62.60;101513.78;4941967;28;45546;-53
2021/06/23 09:13:06;;;;;;;;;30.00;26.50;;;;;18.33;62.40;101522.53;4941985;28;46019;-54
2021/06/23 09:15:39;;;;;;;;;30.75;28.75;;;;;18.36;62.54;101516.25;4941682;28;45313;-56
2021/06/23 09:18:32;;;;;;;;;26.25;25.25;;;;;18.39;62.35;101524.16;4942075;28;45242;-54
2021/06/23 09:21:04;;;;;;;;;26.50;24.25;;;;;18.41;62.46;101524.09;4941704;28;45328;-54
2021/06/23 09:23:43;;;;;;;;;30.00;27.00;;;;;18.42;62.17;101525.81;4941332;28;46288;-54
2021/06/23 09:26:10;;;;;;;;;31.75;29.00;;;;;18.47;62.33;101526.53;4941865;28;45447;-54
2021/06/23 09:28:36;;;;;;;;;31.00;26.25;;;;;18.47;62.36;101524.72;4941604;28;45409;-55
2021/06/23 09:31:01;;;;;;;;;32.75;28.25;;;;;18.50;62.51;101516.66;4928550;28;45365;-56
2021/06/23 09:33:27;;;;;;;;;32.25;28.00;;;;;18.52;62.18;101520.13;4941680;28;46021;-55
2021/06/23 09:35:55;;;;;;;;;24.50;23.50;;;;;18.55;61.95;101520.94;4941784;28;45245;-55
2021/06/23 09:38:32;;;;;;;;;25.00;23.25;;;;;18.55;62.14;101515.63;4941889;28;45335;-54
2021/06/23 09:41:00;;;;;;;;;27.25;23.75;;;;;18.58;62.12;101520.81;4941716;28;45432;-55
2021/06/23 09:43:58;;;;;;;;;30.75;27.50;;;;;18.60;62.26;101525.19;4940878;28;46151;-56
2021/06/23 09:46:29;;;;;;;;;26.25;26.00;;;;;18.64;62.07;101525.91;4937238;28;45302;-55
2021/06/23 09:49:15;;;;;;;;;30.00;27.25;;;;;18.66;62.08;101522.28;4929492;28;45287;-57
2021/06/23 09:51:57;;;;;;;;;31.00;31.00;;;;;18.71;62.15;101529.25;4941394;28;45397;-55
2021/06/23 09:54:25;;;;;;;;;28.00;26.50;;;;;18.73;61.86;101528.28;4941490;28;45401;-55
2021/06/23 09:56:51;;;;;;;;;30.50;28.00;;;;;18.75;61.98;101529.06;4956046;28;45314;-55
2021/06/23 09:59:36;;;;;;;;;27.25;27.25;;;;;18.78;62.13;101531.63;4941638;28;45314;-56
2021/06/23 10:02:03;;;;;;;;;27.75;26.25;;;;;18.79;62.15;101530.72;4945465;28;45267;-56
2021/06/23 10:04:35;;;;;;;;;30.25;27.00;;;;;18.82;61.73;101530.59;4941133;28;47499;-56
2021/06/23 10:07:03;;;;;;;;;28.50;25.50;;;;;18.83;62.23;101529.69;4941235;28;45341;-55
2021/06/23 10:09:30;;;;;;;;;27.25;25.25;;;;;18.86;61.78;101525.16;4941275;28;45239;-56
2021/06/23 10:12:08;;;;;;;;;28.50;26.50;;;;;18.88;62.13;101533.94;4941131;28;45467;-55
2021/06/23 10:14:47;;;;;;;;;28.00;24.50;;;;;18.89;61.76;101520.56;4941041;28;45935;-56
2021/06/23 10:17:13;;;;;;;;;32.75;30.25;;;;;18.89;61.72;101525.91;4941051;28;45310;-56
2021/06/23 10:19:39;;;;;;;;;27.50;25.75;;;;;18.91;61.70;101532.09;4941331;28;45326;-55
2021/06/23 10:22:06;;;;;;;;;27.25;23.00;;;;;18.84;62.09;101511.88;4941112;28;45175;-55
2021/06/23 10:24:33;;;;;;;;;31.25;25.75;;;;;18.93;61.60;101535.56;4941079;28;46876;-57
2021/06/23 10:27:02;;;;;;;;;28.75;24.25;;;;;18.96;61.45;101531.94;4940881;28;45342;-56
2021/06/23 10:29:30;;;;;;;;;28.75;24.75;;;;;18.96;61.78;101535.44;4947326;28;45321;-57
2021/06/23 10:31:57;;;;;;;;;26.50;25.25;;;;;18.99;61.38;101534.47;4940899;28;45224;-56
2021/06/23 10:34:26;;;;;;;;;29.50;26.00;;;;;19.00;61.77;101537.09;4939742;28;46436;-56
2021/06/23 10:36:52;;;;;;;;;24.25;22.50;;;;;19.03;61.69;101524.56;4943959;28;45705;-56
2021/06/23 10:39:19;;;;;;;;;23.50;22.75;;;;;19.01;61.24;101537.94;4944624;28;45484;-57
2021/06/23 10:41:48;;;;;;;;;23.25;22.25;;;;;19.05;61.45;101536.03;4944037;28;45593;-53
2021/06/23 10:44:53;;;;;;;;;25.25;23.00;;;;;19.07;61.32;101535.06;4943064;28;46188;-56
2021/06/23 10:47:29;;;;;;;;;22.50;22.00;;;;;19.10;61.67;101542.06;4931723;28;45454;-56
2021/06/23 10:49:54;;;;;;;;;28.00;27.00;;;;;19.11;61.46;101542.00;4958142;28;45449;-54
2021/06/23 10:52:19;;;;;;;;;26.50;24.50;;;;;19.13;61.34;101545.47;4944236;28;45317;-56
2021/06/23 10:54:46;;;;;;;;;45.75;37.75;;;;;19.11;61.35;101549.13;4943912;28;46400;-54
2021/06/23 10:57:24;;;;;;;;;75.00;56.00;;;;;19.17;61.56;101555.09;4944061;28;45243;-56
2021/06/23 10:59:52;;;;;;;;;47.50;39.00;;;;;19.20;61.18;101559.44;4943931;28;45360;-53
2021/06/23 11:02:25;;;;;;;;;37.75;32.50;;;;;19.21;61.33;101555.84;4951050;28;45426;-55
2021/06/23 11:04:57;;;;;;;;;43.25;32.00;;;;;19.23;61.22;101555.78;4943765;28;45422;-56
2021/06/23 11:07:41;;;;;;;;;56.25;45.25;;;;;19.25;61.54;101554.78;4943834;28;45247;-56
2021/06/23 11:10:12;;;;;;;;;32.75;30.00;;;;;19.27;61.43;101557.41;4933819;28;45302;-56
2021/06/23 11:12:45;;;;;;;;;38.25;35.00;;;;;19.27;61.34;101557.41;4943638;28;45449;-55
2021/06/23 11:15:15;;;;;;;;;35.75;31.25;;;;;19.27;61.37;101562.72;4955216;28;45380;-55
2021/06/23 11:17:41;;;;;;;;;35.25;29.00;;;;;19.26;61.24;101558.34;4941772;28;45466;-56
2021/06/23 11:20:26;;;;;;;;;32.50;28.25;;;;;19.30;61.40;101566.16;4943897;28;45318;-55
2021/06/23 11:22:56;;;;;;;;;29.25;28.00;;;;;19.32;60.88;101568.78;4930096;28;45227;-56
2021/06/23 11:25:27;;;;;;;;;35.25;28.25;;;;;19.33;61.01;101578.47;4943389;28;45477;-55
2021/06/23 11:28:07;;;;;;;;;25.25;20.75;;;;;19.34;61.13;101569.56;4942180;28;45270;-55
2021/06/23 11:30:53;;;;;;;;;31.50;27.00;;;;;19.34;61.11;101569.56;4928479;28;45534;-56